Ana Sayfa
METAR-TAF:

METAR-TAF

Havaalanları :

Hosea Kutako Uluslararası Havalimanı

Windhoek, Namibya

Enlem: 22-29S, Boylam: 017-28E, yükseklik: 1715 m

Güncel hava durumu gözlemi

Rapor saat 03:00 UTC de 1 saat ve 3 dakika önce yapıldı.
Sakin rüzgar
Sıcaklık 8°C
Nem 46%
Basınç 1029 hPa
Görüş mesafesi 10 km veya daha fazla
1500 m altında bulut yok ve kümülonimbus yok

METAR: FYWH 250300Z 00000KT CAVOK 08/M03 Q1029 NOSIG

Saat: 05:03 (04:03 UTC)

Tahmin

Rapor saat 22:00 UTC de 6 saat ve 3 dakika önce yapıldı.
Ayın 25'si saat 00 UTC'den ayın 26'si saat 00 UTC'ye kadar geçerli Tahmin
Rüzgar batı/güneybatıdan 3 kt
Görüş mesafesi 10 km veya daha fazla
1500 m altında bulut yok ve kümülonimbus yok
Dönüşüyor
ayın 25'si saat 06 UTC'den ayın 25'si saat 08 UTC'ye kadar
Rüzgar kuzeydoğudan 4 kt
Dönüşüyor
ayın 25'si saat 08 UTC'den ayın 25'si saat 10 UTC'ye kadar
Rüzgar güneydan 12 kt

TAF: FYWH 242200Z 2500/2600 24003KT CAVOK BECMG 2506/2508 05004KT BECMG 2508/2510 17012KT

4.000'den fazla havaalanı için hava durumu gözlemleri ve tahminleri (METAR ve TAF raporları).

Kullanılabilir istasyonlar harita üzerinde sarı ve kırmızı noktalarla gösterilir.

İstasyonun adını görmek için fareyi noktanın üzerinde gezdirin.

Sonrasında hava gözlem ve tahminlerini görmek için tıklayın.

Haritayı değiştirmek için: yaklaştırmak için siyah artı işaretli yeşil düğmeye ve uzaklaştırmak için de eksi işaretli düğmeye hızla tıklayın; bitişik haritalar için yeşil okları kullanın.


METAR-TAF: